sensor_id;sensor_type;location;lat;lon;timestamp;P1;durP1;ratioP1;P2;durP2;ratioP2
37869;SDS011;62531;53.326;-1.368;2022-09-01T00:02:41;6.45;;;1.33;;
37869;SDS011;62531;53.326;-1.368;2022-09-01T00:06:43;6.77;;;1.27;;
37869;SDS011;62531;53.326;-1.368;2022-09-01T00:10:46;5.60;;;1.60;;
37869;SDS011;62531;53.326;-1.368;2022-09-01T00:14:48;5.13;;;1.55;;
37869;SDS011;62531;53.326;-1.368;2022-09-01T00:18:50;4.53;;;1.67;;
37869;SDS011;62531;53.326;-1.368;2022-09-01T00:22:53;5.30;;;1.40;;
37869;SDS011;62531;53.326;-1.368;2022-09-01T00:26:55;5.20;;;1.80;;
37869;SDS011;62531;53.326;-1.368;2022-09-01T00:30:57;5.32;;;1.65;;
37869;SDS011;62531;53.326;-1.368;2022-09-01T00:34:58;4.87;;;1.77;;
37869;SDS011;62531;53.326;-1.368;2022-09-01T00:39:00;5.07;;;1.70;;
37869;SDS011;62531;53.326;-1.368;2022-09-01T00:43:10;5.57;;;1.58;;
37869;SDS011;62531;53.326;-1.368;2022-09-01T00:47:14;4.33;;;1.33;;
37869;SDS011;62531;53.326;-1.368;2022-09-01T00:51:16;6.20;;;1.67;;
37869;SDS011;62531;53.326;-1.368;2022-09-01T00:55:18;7.30;;;2.00;;
37869;SDS011;62531;53.326;-1.368;2022-09-01T00:59:24;6.83;;;1.70;;
37869;SDS011;62531;53.326;-1.368;2022-09-01T01:03:26;6.38;;;1.60;;
37869;SDS011;62531;53.326;-1.368;2022-09-01T01:07:29;5.03;;;1.35;;
37869;SDS011;62531;53.326;-1.368;2022-09-01T01:11:34;5.00;;;1.60;;
37869;SDS011;62531;53.326;-1.368;2022-09-01T01:15:36;5.03;;;1.47;;
37869;SDS011;62531;53.326;-1.368;2022-09-01T01:28:28;5.10;;;1.50;;
37869;SDS011;62531;53.326;-1.368;2022-09-01T01:32:38;5.55;;;1.80;;
37869;SDS011;62531;53.326;-1.368;2022-09-01T01:36:43;5.47;;;1.50;;
37869;SDS011;62531;53.326;-1.368;2022-09-01T01:40:44;4.10;;;1.27;;
37869;SDS011;62531;53.326;-1.368;2022-09-01T01:44:45;5.22;;;1.40;;
37869;SDS011;62531;53.326;-1.368;2022-09-01T01:48:48;5.05;;;1.42;;
37869;SDS011;62531;53.326;-1.368;2022-09-01T01:52:52;5.45;;;1.45;;
37869;SDS011;62531;53.326;-1.368;2022-09-01T01:56:54;4.67;;;1.37;;
37869;SDS011;62531;53.326;-1.368;2022-09-01T02:01:00;5.00;;;1.73;;
37869;SDS011;62531;53.326;-1.368;2022-09-01T02:05:03;4.93;;;1.40;;
37869;SDS011;62531;53.326;-1.368;2022-09-01T02:09:06;4.57;;;1.40;;
37869;SDS011;62531;53.326;-1.368;2022-09-01T02:13:09;4.75;;;1.42;;
37869;SDS011;62531;53.326;-1.368;2022-09-01T02:17:15;4.57;;;1.48;;
37869;SDS011;62531;53.326;-1.368;2022-09-01T02:21:18;4.00;;;1.20;;
37869;SDS011;62531;53.326;-1.368;2022-09-01T02:25:21;4.47;;;1.55;;
37869;SDS011;62531;53.326;-1.368;2022-09-01T02:29:23;4.78;;;1.67;;
37869;SDS011;62531;53.326;-1.368;2022-09-01T02:33:28;4.72;;;1.45;;
37869;SDS011;62531;53.326;-1.368;2022-09-01T02:37:31;5.13;;;1.60;;
37869;SDS011;62531;53.326;-1.368;2022-09-01T02:41:32;5.60;;;1.73;;
37869;SDS011;62531;53.326;-1.368;2022-09-01T02:45:34;5.65;;;1.67;;
37869;SDS011;62531;53.326;-1.368;2022-09-01T02:49:37;4.97;;;1.43;;
37869;SDS011;62531;53.326;-1.368;2022-09-01T02:53:38;4.90;;;1.30;;
37869;SDS011;62531;53.326;-1.368;2022-09-01T02:57:42;4.82;;;1.38;;
37869;SDS011;62531;53.326;-1.368;2022-09-01T03:01:46;3.90;;;1.57;;
37869;SDS011;62531;53.326;-1.368;2022-09-01T03:05:52;5.43;;;1.52;;
37869;SDS011;62531;53.326;-1.368;2022-09-01T03:09:56;4.28;;;1.35;;
37869;SDS011;62531;53.326;-1.368;2022-09-01T03:13:57;4.20;;;1.20;;
37869;SDS011;62531;53.326;-1.368;2022-09-01T03:17:59;5.20;;;1.67;;
37869;SDS011;62531;53.326;-1.368;2022-09-01T03:22:00;5.22;;;1.55;;
37869;SDS011;62531;53.326;-1.368;2022-09-01T03:26:02;4.22;;;1.25;;
37869;SDS011;62531;53.326;-1.368;2022-09-01T03:30:03;4.90;;;1.30;;
37869;SDS011;62531;53.326;-1.368;2022-09-01T03:34:05;4.72;;;1.60;;
37869;SDS011;62531;53.326;-1.368;2022-09-01T03:38:10;5.15;;;1.20;;
37869;SDS011;62531;53.326;-1.368;2022-09-01T03:42:21;4.57;;;1.50;;
37869;SDS011;62531;53.326;-1.368;2022-09-01T03:46:26;4.90;;;1.80;;
37869;SDS011;62531;53.326;-1.368;2022-09-01T03:50:31;4.70;;;1.42;;
37869;SDS011;62531;53.326;-1.368;2022-09-01T03:54:33;4.47;;;1.40;;
37869;SDS011;62531;53.326;-1.368;2022-09-01T03:58:35;4.40;;;1.37;;
37869;SDS011;62531;53.326;-1.368;2022-09-01T04:02:36;4.20;;;1.65;;
37869;SDS011;62531;53.326;-1.368;2022-09-01T04:06:39;4.65;;;1.70;;
37869;SDS011;62531;53.326;-1.368;2022-09-01T04:10:43;4.23;;;1.40;;
37869;SDS011;62531;53.326;-1.368;2022-09-01T04:14:53;4.00;;;1.20;;
37869;SDS011;62531;53.326;-1.368;2022-09-01T04:18:54;4.63;;;1.35;;
37869;SDS011;62531;53.326;-1.368;2022-09-01T04:22:55;4.63;;;1.37;;
37869;SDS011;62531;53.326;-1.368;2022-09-01T04:26:57;4.53;;;1.27;;
37869;SDS011;62531;53.326;-1.368;2022-09-01T04:31:02;4.07;;;1.17;;
37869;SDS011;62531;53.326;-1.368;2022-09-01T04:35:08;5.32;;;1.70;;
37869;SDS011;62531;53.326;-1.368;2022-09-01T04:39:16;4.77;;;1.70;;
37869;SDS011;62531;53.326;-1.368;2022-09-01T04:43:17;3.83;;;1.20;;
37869;SDS011;62531;53.326;-1.368;2022-09-01T04:47:19;3.78;;;1.23;;
37869;SDS011;62531;53.326;-1.368;2022-09-01T04:51:29;3.80;;;1.20;;
37869;SDS011;62531;53.326;-1.368;2022-09-01T04:55:30;4.43;;;1.35;;
37869;SDS011;62531;53.326;-1.368;2022-09-01T04:59:32;4.53;;;1.13;;
37869;SDS011;62531;53.326;-1.368;2022-09-01T05:03:33;4.53;;;1.53;;
37869;SDS011;62531;53.326;-1.368;2022-09-01T05:07:35;4.22;;;1.40;;
37869;SDS011;62531;53.326;-1.368;2022-09-01T05:11:38;3.90;;;1.50;;
37869;SDS011;62531;53.326;-1.368;2022-09-01T05:15:40;4.65;;;1.15;;
37869;SDS011;62531;53.326;-1.368;2022-09-01T05:19:46;4.37;;;1.30;;
37869;SDS011;62531;53.326;-1.368;2022-09-01T05:23:50;3.90;;;1.40;;
37869;SDS011;62531;53.326;-1.368;2022-09-01T05:27:51;4.05;;;1.10;;
37869;SDS011;62531;53.326;-1.368;2022-09-01T05:31:52;4.40;;;1.47;;
37869;SDS011;62531;53.326;-1.368;2022-09-01T05:35:57;4.45;;;1.10;;
37869;SDS011;62531;53.326;-1.368;2022-09-01T05:40:02;3.88;;;1.02;;
37869;SDS011;62531;53.326;-1.368;2022-09-01T05:44:06;4.37;;;1.10;;
37869;SDS011;62531;53.326;-1.368;2022-09-01T05:48:11;4.40;;;1.17;;
37869;SDS011;62531;53.326;-1.368;2022-09-01T05:52:19;4.28;;;1.33;;
37869;SDS011;62531;53.326;-1.368;2022-09-01T05:56:26;3.88;;;1.38;;
37869;SDS011;62531;53.326;-1.368;2022-09-01T06:00:28;4.00;;;1.33;;
37869;SDS011;62531;53.326;-1.368;2022-09-01T06:04:36;3.88;;;1.05;;
37869;SDS011;62531;53.326;-1.368;2022-09-01T06:08:43;5.28;;;1.33;;
37869;SDS011;62531;53.326;-1.368;2022-09-01T06:12:48;4.27;;;1.30;;
37869;SDS011;62531;53.326;-1.368;2022-09-01T06:16:52;5.10;;;1.50;;
37869;SDS011;62531;53.326;-1.368;2022-09-01T06:20:53;4.45;;;1.30;;
37869;SDS011;62531;53.326;-1.368;2022-09-01T06:24:55;5.37;;;1.53;;
37869;SDS011;62531;53.326;-1.368;2022-09-01T06:28:57;4.32;;;1.50;;
37869;SDS011;62531;53.326;-1.368;2022-09-01T06:33:01;4.07;;;1.45;;
37869;SDS011;62531;53.326;-1.368;2022-09-01T06:37:11;3.90;;;1.17;;
37869;SDS011;62531;53.326;-1.368;2022-09-01T06:41:13;4.27;;;1.03;;
37869;SDS011;62531;53.326;-1.368;2022-09-01T06:45:15;4.25;;;1.30;;
37869;SDS011;62531;53.326;-1.368;2022-09-01T06:49:18;5.15;;;1.33;;
37869;SDS011;62531;53.326;-1.368;2022-09-01T06:53:23;5.67;;;1.63;;
37869;SDS011;62531;53.326;-1.368;2022-09-01T06:57:24;4.55;;;1.42;;
37869;SDS011;62531;53.326;-1.368;2022-09-01T07:01:27;7.57;;;1.80;;
37869;SDS011;62531;53.326;-1.368;2022-09-01T07:05:29;5.03;;;2.00;;
37869;SDS011;62531;53.326;-1.368;2022-09-01T07:09:34;5.28;;;1.90;;
37869;SDS011;62531;53.326;-1.368;2022-09-01T07:13:35;7.20;;;2.10;;
37869;SDS011;62531;53.326;-1.368;2022-09-01T07:17:38;6.30;;;2.10;;
37869;SDS011;62531;53.326;-1.368;2022-09-01T07:21:41;6.33;;;2.40;;
37869;SDS011;62531;53.326;-1.368;2022-09-01T07:25:44;6.00;;;2.38;;
37869;SDS011;62531;53.326;-1.368;2022-09-01T07:29:47;7.60;;;2.20;;
37869;SDS011;62531;53.326;-1.368;2022-09-01T07:33:56;6.37;;;2.20;;
37869;SDS011;62531;53.326;-1.368;2022-09-01T07:38:00;6.40;;;2.22;;
37869;SDS011;62531;53.326;-1.368;2022-09-01T07:42:02;6.03;;;2.20;;
37869;SDS011;62531;53.326;-1.368;2022-09-01T07:46:09;5.97;;;2.27;;
37869;SDS011;62531;53.326;-1.368;2022-09-01T07:50:12;8.45;;;1.88;;
37869;SDS011;62531;53.326;-1.368;2022-09-01T07:54:15;8.10;;;2.40;;
37869;SDS011;62531;53.326;-1.368;2022-09-01T07:58:17;6.15;;;2.22;;
37869;SDS011;62531;53.326;-1.368;2022-09-01T08:02:22;5.57;;;1.60;;
37869;SDS011;62531;53.326;-1.368;2022-09-01T08:06:26;9.77;;;2.85;;
37869;SDS011;62531;53.326;-1.368;2022-09-01T08:10:28;7.80;;;2.28;;
37869;SDS011;62531;53.326;-1.368;2022-09-01T08:14:29;8.30;;;1.90;;
37869;SDS011;62531;53.326;-1.368;2022-09-01T08:18:31;9.85;;;1.98;;
37869;SDS011;62531;53.326;-1.368;2022-09-01T08:22:32;7.00;;;1.85;;
37869;SDS011;62531;53.326;-1.368;2022-09-01T08:26:34;8.03;;;1.97;;
37869;SDS011;62531;53.326;-1.368;2022-09-01T08:30:37;7.18;;;1.98;;
37869;SDS011;62531;53.326;-1.368;2022-09-01T08:34:40;6.97;;;1.60;;
37869;SDS011;62531;53.326;-1.368;2022-09-01T08:38:42;7.88;;;1.85;;
37869;SDS011;62531;53.326;-1.368;2022-09-01T08:47:16;6.70;;;1.58;;
37869;SDS011;62531;53.326;-1.368;2022-09-01T08:55:43;6.53;;;1.90;;
37869;SDS011;62531;53.326;-1.368;2022-09-01T08:59:49;7.45;;;1.67;;
37869;SDS011;62531;53.326;-1.368;2022-09-01T09:16:48;4.95;;;1.73;;
37869;SDS011;62531;53.326;-1.368;2022-09-01T09:20:53;6.15;;;1.80;;
37869;SDS011;62531;53.326;-1.368;2022-09-01T09:29:11;6.95;;;1.63;;
37869;SDS011;62531;53.326;-1.368;2022-09-01T09:33:31;4.72;;;1.17;;
37869;SDS011;62531;53.326;-1.368;2022-09-01T09:37:38;5.47;;;1.00;;
37869;SDS011;62531;53.326;-1.368;2022-09-01T09:41:39;4.07;;;1.00;;
37869;SDS011;62531;53.326;-1.368;2022-09-01T09:45:41;5.50;;;1.27;;
37869;SDS011;62531;53.326;-1.368;2022-09-01T09:49:42;7.17;;;1.37;;
37869;SDS011;62531;53.326;-1.368;2022-09-01T09:53:43;4.65;;;1.00;;
37869;SDS011;62531;53.326;-1.368;2022-09-01T09:57:45;5.63;;;1.10;;
37869;SDS011;62531;53.326;-1.368;2022-09-01T10:01:47;6.22;;;1.60;;
37869;SDS011;62531;53.326;-1.368;2022-09-01T10:05:50;5.00;;;1.30;;
37869;SDS011;62531;53.326;-1.368;2022-09-01T10:09:52;5.05;;;1.13;;
37869;SDS011;62531;53.326;-1.368;2022-09-01T10:13:55;6.82;;;1.30;;
37869;SDS011;62531;53.326;-1.368;2022-09-01T10:18:05;4.77;;;1.10;;
37869;SDS011;62531;53.326;-1.368;2022-09-01T10:22:15;5.20;;;1.27;;
37869;SDS011;62531;53.326;-1.368;2022-09-01T10:26:18;4.68;;;1.35;;
37869;SDS011;62531;53.326;-1.368;2022-09-01T10:30:34;7.03;;;1.40;;
37869;SDS011;62531;53.326;-1.368;2022-09-01T10:34:43;6.07;;;0.90;;
37869;SDS011;62531;53.326;-1.368;2022-09-01T10:38:46;5.18;;;1.42;;
37869;SDS011;62531;53.326;-1.368;2022-09-01T10:42:49;5.18;;;1.30;;
37869;SDS011;62531;53.326;-1.368;2022-09-01T10:46:54;5.13;;;1.03;;
37869;SDS011;62531;53.326;-1.368;2022-09-01T10:55:15;6.40;;;1.15;;
37869;SDS011;62531;53.326;-1.368;2022-09-01T11:03:36;4.22;;;1.13;;
37869;SDS011;62531;53.326;-1.368;2022-09-01T11:07:42;6.20;;;1.00;;
37869;SDS011;62531;53.326;-1.368;2022-09-01T11:11:52;5.57;;;1.20;;
37869;SDS011;62531;53.326;-1.368;2022-09-01T11:15:55;5.38;;;0.98;;
37869;SDS011;62531;53.326;-1.368;2022-09-01T11:20:31;4.07;;;1.30;;
37869;SDS011;62531;53.326;-1.368;2022-09-01T11:28:44;4.67;;;1.20;;
37869;SDS011;62531;53.326;-1.368;2022-09-01T11:32:47;7.10;;;1.10;;
37869;SDS011;62531;53.326;-1.368;2022-09-01T11:36:54;4.93;;;1.00;;
37869;SDS011;62531;53.326;-1.368;2022-09-01T11:40:59;3.77;;;0.80;;
37869;SDS011;62531;53.326;-1.368;2022-09-01T11:45:02;6.43;;;1.20;;
37869;SDS011;62531;53.326;-1.368;2022-09-01T11:49:07;4.13;;;1.00;;
37869;SDS011;62531;53.326;-1.368;2022-09-01T11:53:30;3.97;;;0.90;;
37869;SDS011;62531;53.326;-1.368;2022-09-01T11:57:33;5.35;;;1.00;;
37869;SDS011;62531;53.326;-1.368;2022-09-01T12:01:37;5.28;;;0.90;;
37869;SDS011;62531;53.326;-1.368;2022-09-01T12:05:39;4.90;;;1.42;;
37869;SDS011;62531;53.326;-1.368;2022-09-01T12:09:42;4.30;;;0.90;;
37869;SDS011;62531;53.326;-1.368;2022-09-01T12:22:27;3.83;;;0.90;;
37869;SDS011;62531;53.326;-1.368;2022-09-01T12:26:28;8.75;;;1.10;;
37869;SDS011;62531;53.326;-1.368;2022-09-01T12:30:31;5.38;;;1.00;;
37869;SDS011;62531;53.326;-1.368;2022-09-01T12:35:13;4.37;;;1.40;;
37869;SDS011;62531;53.326;-1.368;2022-09-01T12:43:31;4.22;;;1.23;;
37869;SDS011;62531;53.326;-1.368;2022-09-01T12:51:36;6.20;;;1.20;;
37869;SDS011;62531;53.326;-1.368;2022-09-01T12:55:38;5.35;;;1.20;;
37869;SDS011;62531;53.326;-1.368;2022-09-01T12:59:39;4.95;;;1.20;;
37869;SDS011;62531;53.326;-1.368;2022-09-01T13:03:40;6.77;;;1.37;;
37869;SDS011;62531;53.326;-1.368;2022-09-01T13:07:41;5.22;;;1.00;;
37869;SDS011;62531;53.326;-1.368;2022-09-01T13:11:43;4.30;;;0.85;;
37869;SDS011;62531;53.326;-1.368;2022-09-01T13:15:50;4.50;;;0.93;;
37869;SDS011;62531;53.326;-1.368;2022-09-01T13:19:53;5.25;;;0.88;;
37869;SDS011;62531;53.326;-1.368;2022-09-01T13:23:54;4.35;;;1.20;;
37869;SDS011;62531;53.326;-1.368;2022-09-01T13:27:55;6.80;;;1.40;;
37869;SDS011;62531;53.326;-1.368;2022-09-01T13:31:57;5.93;;;1.00;;
37869;SDS011;62531;53.326;-1.368;2022-09-01T13:35:58;7.63;;;1.45;;
37869;SDS011;62531;53.326;-1.368;2022-09-01T13:40:01;4.80;;;1.10;;
37869;SDS011;62531;53.326;-1.368;2022-09-01T13:44:03;5.70;;;1.00;;
37869;SDS011;62531;53.326;-1.368;2022-09-01T13:48:06;4.32;;;1.10;;
37869;SDS011;62531;53.326;-1.368;2022-09-01T13:52:08;5.63;;;0.85;;
37869;SDS011;62531;53.326;-1.368;2022-09-01T13:56:10;5.43;;;0.90;;
37869;SDS011;62531;53.326;-1.368;2022-09-01T14:00:12;3.58;;;0.68;;
37869;SDS011;62531;53.326;-1.368;2022-09-01T14:04:16;5.63;;;1.15;;
37869;SDS011;62531;53.326;-1.368;2022-09-01T14:08:19;7.35;;;1.20;;
37869;SDS011;62531;53.326;-1.368;2022-09-01T14:12:21;8.07;;;1.30;;
37869;SDS011;62531;53.326;-1.368;2022-09-01T14:16:23;7.38;;;1.02;;
37869;SDS011;62531;53.326;-1.368;2022-09-01T14:20:30;9.15;;;1.10;;
37869;SDS011;62531;53.326;-1.368;2022-09-01T14:24:35;6.20;;;0.80;;
37869;SDS011;62531;53.326;-1.368;2022-09-01T14:28:37;4.82;;;0.90;;
37869;SDS011;62531;53.326;-1.368;2022-09-01T14:32:40;6.57;;;0.90;;
37869;SDS011;62531;53.326;-1.368;2022-09-01T14:36:41;5.67;;;1.10;;
37869;SDS011;62531;53.326;-1.368;2022-09-01T14:40:45;5.95;;;0.70;;
37869;SDS011;62531;53.326;-1.368;2022-09-01T14:44:48;4.88;;;1.10;;
37869;SDS011;62531;53.326;-1.368;2022-09-01T14:48:49;5.90;;;1.15;;
37869;SDS011;62531;53.326;-1.368;2022-09-01T14:52:51;5.93;;;1.13;;
37869;SDS011;62531;53.326;-1.368;2022-09-01T14:56:54;4.75;;;0.90;;
37869;SDS011;62531;53.326;-1.368;2022-09-01T15:00:55;3.72;;;0.70;;
37869;SDS011;62531;53.326;-1.368;2022-09-01T15:04:57;4.87;;;0.90;;
37869;SDS011;62531;53.326;-1.368;2022-09-01T15:08:59;6.18;;;0.85;;
37869;SDS011;62531;53.326;-1.368;2022-09-01T15:13:02;5.97;;;1.02;;
37869;SDS011;62531;53.326;-1.368;2022-09-01T15:17:03;4.57;;;0.70;;
37869;SDS011;62531;53.326;-1.368;2022-09-01T15:21:06;4.50;;;1.25;;
37869;SDS011;62531;53.326;-1.368;2022-09-01T15:25:07;5.55;;;0.85;;
37869;SDS011;62531;53.326;-1.368;2022-09-01T15:29:08;6.05;;;0.95;;
37869;SDS011;62531;53.326;-1.368;2022-09-01T15:33:13;3.73;;;0.70;;
37869;SDS011;62531;53.326;-1.368;2022-09-01T15:37:14;3.70;;;0.80;;
37869;SDS011;62531;53.326;-1.368;2022-09-01T15:41:16;4.03;;;0.77;;
37869;SDS011;62531;53.326;-1.368;2022-09-01T15:45:18;3.70;;;1.03;;
37869;SDS011;62531;53.326;-1.368;2022-09-01T15:49:21;3.05;;;0.65;;
37869;SDS011;62531;53.326;-1.368;2022-09-01T15:53:22;5.28;;;0.70;;
37869;SDS011;62531;53.326;-1.368;2022-09-01T15:57:24;11.40;;;1.43;;
37869;SDS011;62531;53.326;-1.368;2022-09-01T16:01:26;4.57;;;0.80;;
37869;SDS011;62531;53.326;-1.368;2022-09-01T16:05:32;7.20;;;0.90;;
37869;SDS011;62531;53.326;-1.368;2022-09-01T16:09:36;5.45;;;0.82;;
37869;SDS011;62531;53.326;-1.368;2022-09-01T16:13:38;4.97;;;0.90;;
37869;SDS011;62531;53.326;-1.368;2022-09-01T16:17:50;3.40;;;0.80;;
37869;SDS011;62531;53.326;-1.368;2022-09-01T16:26:06;3.93;;;1.07;;
37869;SDS011;62531;53.326;-1.368;2022-09-01T16:30:09;4.55;;;1.17;;
37869;SDS011;62531;53.326;-1.368;2022-09-01T16:34:15;4.80;;;1.00;;
37869;SDS011;62531;53.326;-1.368;2022-09-01T16:38:32;5.43;;;1.10;;
37869;SDS011;62531;53.326;-1.368;2022-09-01T16:47:00;8.90;;;0.90;;
37869;SDS011;62531;53.326;-1.368;2022-09-01T16:51:10;6.60;;;1.02;;
37869;SDS011;62531;53.326;-1.368;2022-09-01T16:59:47;3.55;;;0.80;;
37869;SDS011;62531;53.326;-1.368;2022-09-01T17:08:31;4.50;;;0.80;;
37869;SDS011;62531;53.326;-1.368;2022-09-01T17:12:39;3.58;;;0.73;;
37869;SDS011;62531;53.326;-1.368;2022-09-01T17:16:46;3.33;;;0.57;;
37869;SDS011;62531;53.326;-1.368;2022-09-01T17:20:51;4.37;;;0.77;;
37869;SDS011;62531;53.326;-1.368;2022-09-01T17:25:03;5.05;;;0.80;;
37869;SDS011;62531;53.326;-1.368;2022-09-01T17:29:19;4.38;;;0.82;;
37869;SDS011;62531;53.326;-1.368;2022-09-01T17:33:38;4.70;;;0.75;;
37869;SDS011;62531;53.326;-1.368;2022-09-01T17:42:06;4.70;;;0.80;;
37869;SDS011;62531;53.326;-1.368;2022-09-01T17:46:22;3.20;;;0.60;;
37869;SDS011;62531;53.326;-1.368;2022-09-01T18:11:48;4.30;;;0.75;;
37869;SDS011;62531;53.326;-1.368;2022-09-01T18:15:56;3.88;;;0.95;;
37869;SDS011;62531;53.326;-1.368;2022-09-01T18:20:08;3.93;;;0.80;;
37869;SDS011;62531;53.326;-1.368;2022-09-01T18:28:58;4.05;;;0.90;;
37869;SDS011;62531;53.326;-1.368;2022-09-01T18:33:05;2.80;;;0.60;;
37869;SDS011;62531;53.326;-1.368;2022-09-01T18:37:38;3.45;;;0.93;;
37869;SDS011;62531;53.326;-1.368;2022-09-01T18:42:09;4.53;;;1.00;;
37869;SDS011;62531;53.326;-1.368;2022-09-01T18:46:29;3.60;;;0.80;;
37869;SDS011;62531;53.326;-1.368;2022-09-01T19:12:40;4.22;;;1.42;;
37869;SDS011;62531;53.326;-1.368;2022-09-01T19:21:23;4.53;;;1.02;;
37869;SDS011;62531;53.326;-1.368;2022-09-01T19:25:27;3.90;;;0.90;;
37869;SDS011;62531;53.326;-1.368;2022-09-01T19:29:45;4.03;;;0.97;;
37869;SDS011;62531;53.326;-1.368;2022-09-01T19:33:53;4.25;;;1.00;;
37869;SDS011;62531;53.326;-1.368;2022-09-01T20:37:55;4.53;;;1.30;;
37869;SDS011;62531;53.326;-1.368;2022-09-01T20:43:21;4.30;;;1.17;;
37869;SDS011;62531;53.326;-1.368;2022-09-01T21:25:46;3.80;;;1.27;;
37869;SDS011;62531;53.326;-1.368;2022-09-01T21:29:59;4.85;;;1.45;;
37869;SDS011;62531;53.326;-1.368;2022-09-01T21:34:09;4.57;;;0.97;;
37869;SDS011;62531;53.326;-1.368;2022-09-01T21:38:10;5.10;;;1.15;;
37869;SDS011;62531;53.326;-1.368;2022-09-01T21:42:11;4.10;;;1.17;;
37869;SDS011;62531;53.326;-1.368;2022-09-01T21:46:13;5.10;;;1.40;;
37869;SDS011;62531;53.326;-1.368;2022-09-01T21:51:00;4.18;;;1.15;;
37869;SDS011;62531;53.326;-1.368;2022-09-01T21:55:27;6.03;;;1.35;;
37869;SDS011;62531;53.326;-1.368;2022-09-01T21:59:28;4.37;;;1.27;;
37869;SDS011;62531;53.326;-1.368;2022-09-01T22:03:30;5.65;;;1.15;;
37869;SDS011;62531;53.326;-1.368;2022-09-01T22:07:33;4.10;;;0.93;;
37869;SDS011;62531;53.326;-1.368;2022-09-01T22:11:38;4.85;;;1.23;;
37869;SDS011;62531;53.326;-1.368;2022-09-01T22:15:41;6.43;;;1.20;;
37869;SDS011;62531;53.326;-1.368;2022-09-01T22:19:43;5.43;;;1.15;;
37869;SDS011;62531;53.326;-1.368;2022-09-01T22:23:45;4.82;;;1.27;;
37869;SDS011;62531;53.326;-1.368;2022-09-01T22:27:46;5.87;;;1.10;;
37869;SDS011;62531;53.326;-1.368;2022-09-01T22:31:48;4.43;;;1.08;;
37869;SDS011;62531;53.326;-1.368;2022-09-01T22:35:50;4.18;;;1.02;;
37869;SDS011;62531;53.326;-1.368;2022-09-01T22:39:53;5.00;;;1.10;;
37869;SDS011;62531;53.326;-1.368;2022-09-01T22:43:54;5.65;;;1.00;;
37869;SDS011;62531;53.326;-1.368;2022-09-01T22:47:57;4.93;;;1.25;;
37869;SDS011;62531;53.326;-1.368;2022-09-01T22:51:58;4.50;;;0.98;;
37869;SDS011;62531;53.326;-1.368;2022-09-01T22:55:59;5.43;;;1.20;;
37869;SDS011;62531;53.326;-1.368;2022-09-01T23:00:05;4.32;;;1.25;;
37869;SDS011;62531;53.326;-1.368;2022-09-01T23:04:10;4.45;;;1.25;;
37869;SDS011;62531;53.326;-1.368;2022-09-01T23:08:12;4.00;;;1.00;;
37869;SDS011;62531;53.326;-1.368;2022-09-01T23:12:16;4.20;;;1.17;;
37869;SDS011;62531;53.326;-1.368;2022-09-01T23:16:17;5.70;;;1.80;;
37869;SDS011;62531;53.326;-1.368;2022-09-01T23:20:19;6.63;;;0.97;;
37869;SDS011;62531;53.326;-1.368;2022-09-01T23:24:20;6.82;;;1.42;;
37869;SDS011;62531;53.326;-1.368;2022-09-01T23:28:21;5.70;;;1.20;;
37869;SDS011;62531;53.326;-1.368;2022-09-01T23:32:23;4.82;;;1.23;;
37869;SDS011;62531;53.326;-1.368;2022-09-01T23:36:25;4.17;;;1.33;;
37869;SDS011;62531;53.326;-1.368;2022-09-01T23:40:27;5.15;;;1.50;;
37869;SDS011;62531;53.326;-1.368;2022-09-01T23:44:28;4.95;;;1.10;;
37869;SDS011;62531;53.326;-1.368;2022-09-01T23:48:29;5.60;;;1.30;;
37869;SDS011;62531;53.326;-1.368;2022-09-01T23:52:31;4.25;;;1.15;;
37869;SDS011;62531;53.326;-1.368;2022-09-01T23:56:32;6.88;;;1.00;;
